Time;durP1;ratioP1;P1;durP2;ratioP2;P2;SDS_P1;SDS_P2;PMS_P1;PMS_P2;Temp;Humidity;BMP_temperature;BMP_pressure;BME280_temperature;BME280_humidity;BME280_pressure;Samples;Min_cycle;Max_cycle;Signal;HPM_P1;HPM_P2
2022/06/27 00:00:14;;;;;;;15.20;13.80;;;;;;;20.71;61.49;100839.47;683483;28;986;-73
2022/06/27 00:00:35;;;;;;;15.57;14.10;;;;;;;20.75;61.36;100846.50;680830;29;816;-73
2022/06/27 00:00:56;;;;;;;15.50;13.90;;;;;;;20.74;61.51;100835.91;680225;29;1380;-72
2022/06/27 00:01:17;;;;;;;15.55;13.95;;;;;;;20.65;61.29;100827.16;679812;29;1090;-73
2022/06/27 00:01:38;;;;;;;15.30;13.70;;;;;;;20.72;61.64;100840.38;680096;29;1538;-74
2022/06/27 00:01:59;;;;;;;15.18;13.77;;;;;;;20.68;61.40;100834.19;679820;29;1300;-73
2022/06/27 00:02:20;;;;;;;16.10;14.50;;;;;;;20.67;61.46;100838.63;677012;29;1210;-73
2022/06/27 00:02:42;;;;;;;16.55;14.95;;;;;;;20.68;61.62;100835.09;685033;28;1254;-73
2022/06/27 00:03:02;;;;;;;16.80;15.10;;;;;;;20.69;61.65;100842.16;682437;28;1256;-73
2022/06/27 00:03:23;;;;;;;16.00;14.40;;;;;;;20.71;61.63;100843.94;688108;28;827;-73
2022/06/27 00:03:44;;;;;;;15.65;14.15;;;;;;;20.74;61.58;100844.75;682804;29;1172;-73
2022/06/27 00:04:05;;;;;;;15.83;14.43;;;;;;;20.70;61.49;100837.72;683664;28;2149;-73
2022/06/27 00:04:26;;;;;;;16.20;14.68;;;;;;;20.72;61.66;100840.38;680124;29;1729;-73
2022/06/27 00:04:46;;;;;;;16.40;14.80;;;;;;;20.69;61.48;100835.94;683146;28;1573;-73
2022/06/27 00:05:08;;;;;;;15.82;14.32;;;;;;;20.77;61.50;100854.47;685143;28;1742;-73
2022/06/27 00:05:29;;;;;;;15.93;14.48;;;;;;;20.67;61.45;100835.09;686627;28;1473;-73
2022/06/27 00:05:49;;;;;;;15.70;14.20;;;;;;;20.72;61.56;100846.53;689638;28;1013;-72
2022/06/27 00:06:10;;;;;;;15.98;14.48;;;;;;;20.68;61.40;100839.50;685305;28;1596;-73
2022/06/27 00:06:31;;;;;;;16.83;15.13;;;;;;;20.71;61.36;100844.78;685851;28;1073;-73
2022/06/27 00:06:52;;;;;;;17.05;15.35;;;;;;;20.70;61.67;100845.69;680123;29;1296;-73
2022/06/27 00:07:13;;;;;;;16.90;15.20;;;;;;;20.69;61.44;100839.50;680131;29;1527;-73
2022/06/27 00:07:34;;;;;;;16.08;14.52;;;;;;;20.68;61.44;100842.16;677090;29;1473;-73
2022/06/27 00:07:55;;;;;;;15.63;14.13;;;;;;;20.65;61.47;100834.25;682595;29;1417;-73
2022/06/27 00:08:15;;;;;;;15.32;13.93;;;;;;;20.63;61.34;100836.03;682377;29;1355;-73
2022/06/27 00:08:36;;;;;;;15.00;13.70;;;;;;;20.72;61.32;100854.50;684795;28;1919;-73
2022/06/27 00:08:57;;;;;;;15.70;14.10;;;;;;;20.66;61.32;100846.63;677331;29;1592;-73
2022/06/27 00:09:18;;;;;;;16.30;14.57;;;;;;;20.63;61.23;100836.91;677708;29;1106;-73
2022/06/27 00:09:39;;;;;;;16.67;14.60;;;;;;;20.60;61.25;100836.06;679999;29;927;-73
2022/06/27 00:09:59;;;;;;;16.60;14.90;;;;;;;20.68;61.23;100855.41;679857;29;1265;-73
2022/06/27 00:10:21;;;;;;;16.48;14.88;;;;;;;20.68;61.11;100850.09;680681;29;1221;-73
2022/06/27 00:10:42;;;;;;;16.77;15.27;;;;;;;20.68;61.35;100850.09;683249;28;787;-73
2022/06/27 00:11:03;;;;;;;16.70;15.20;;;;;;;20.64;61.12;100843.97;680005;29;1546;-73
2022/06/27 00:11:24;;;;;;;16.92;15.23;;;;;;;20.65;61.11;100845.72;680829;29;796;-73
2022/06/27 00:11:45;;;;;;;16.92;15.23;;;;;;;20.71;61.07;100850.09;682136;28;1636;-73
2022/06/27 00:12:07;;;;;;;16.60;15.00;;;;;;;20.69;61.30;100857.16;682305;28;1411;-73
2022/06/27 00:12:28;;;;;;;16.23;14.73;;;;;;;20.70;61.11;100856.28;682696;29;1776;-73
2022/06/27 00:12:48;;;;;;;15.60;14.13;;;;;;;20.71;61.09;100858.03;682265;29;1344;-73
2022/06/27 00:13:09;;;;;;;15.50;14.00;;;;;;;20.63;61.01;100847.53;679742;29;1358;-73
2022/06/27 00:13:30;;;;;;;15.70;14.20;;;;;;;20.67;60.95;100851.88;680233;29;828;-73
2022/06/27 00:13:51;;;;;;;16.17;14.60;;;;;;;20.67;60.86;100857.16;680061;29;998;-73
2022/06/27 00:14:11;;;;;;;16.40;14.90;;;;;;;20.65;61.19;100850.16;682136;29;1267;-73
2022/06/27 00:14:32;;;;;;;15.90;14.40;;;;;;;20.62;61.02;100844.88;682652;29;991;-73
2022/06/27 00:14:53;;;;;;;15.60;14.15;;;;;;;20.66;60.95;100851.91;683270;28;1686;-73
2022/06/27 00:15:14;;;;;;;15.60;14.10;;;;;;;20.69;60.86;100859.81;682566;29;1267;-73
2022/06/27 00:15:35;;;;;;;15.80;14.20;;;;;;;20.65;60.85;100850.16;683646;28;1980;-73
2022/06/27 00:15:56;;;;;;;15.43;13.93;;;;;;;20.73;60.97;100872.19;685136;28;1075;-73
2022/06/27 00:16:17;;;;;;;15.35;13.85;;;;;;;20.65;61.15;100847.50;682299;28;1443;-73
2022/06/27 00:16:37;;;;;;;16.05;14.45;;;;;;;20.67;60.99;100853.66;685427;28;840;-73
2022/06/27 00:16:58;;;;;;;16.55;14.77;;;;;;;20.63;61.02;100841.31;679837;29;1120;-73
2022/06/27 00:17:19;;;;;;;16.50;14.80;;;;;;;20.66;61.16;100851.91;680341;29;971;-73
2022/06/27 00:17:40;;;;;;;16.15;14.55;;;;;;;20.65;61.16;100847.50;684313;28;1565;-73
2022/06/27 00:18:00;;;;;;;17.00;15.40;;;;;;;20.71;61.16;100855.38;686113;28;1230;-73
2022/06/27 00:18:21;;;;;;;17.85;16.10;;;;;;;20.70;61.17;100851.00;688142;28;1199;-73
2022/06/27 00:18:42;;;;;;;18.23;16.42;;;;;;;20.66;61.30;100841.31;687977;28;1321;-73
2022/06/27 00:19:03;;;;;;;17.57;15.87;;;;;;;20.69;61.38;100851.84;682388;29;1539;-73
2022/06/27 00:19:24;;;;;;;17.45;15.75;;;;;;;20.67;61.39;100848.34;679927;29;1551;-73
2022/06/27 00:19:45;;;;;;;16.85;15.32;;;;;;;20.71;61.35;100850.09;681841;28;1277;-73
2022/06/27 00:20:06;;;;;;;16.70;15.15;;;;;;;20.68;61.47;100842.16;679829;29;1252;-73
2022/06/27 00:20:27;;;;;;;16.85;15.15;;;;;;;20.69;61.46;100846.56;679944;29;1355;-73
2022/06/27 00:20:47;;;;;;;17.20;15.50;;;;;;;20.66;61.48;100842.16;680880;29;1440;-73
2022/06/27 00:21:08;;;;;;;17.40;15.70;;;;;;;20.69;61.60;100846.56;680130;29;1475;-73
2022/06/27 00:21:29;;;;;;;17.00;15.40;;;;;;;20.69;61.39;100841.25;680139;29;1196;-73
2022/06/27 00:21:49;;;;;;;17.20;15.60;;;;;;;20.71;61.29;100847.44;680889;28;962;-73
2022/06/27 00:22:10;;;;;;;17.27;15.68;;;;;;;20.72;61.29;100845.69;680924;29;1560;-73
2022/06/27 00:22:31;;;;;;;17.60;16.00;;;;;;;20.70;61.21;100848.34;684137;28;1432;-72
2022/06/27 00:22:53;;;;;;;17.05;15.38;;;;;;;20.78;61.03;100867.69;682622;29;1114;-73
2022/06/27 00:23:14;;;;;;;16.48;14.88;;;;;;;20.68;61.19;100844.81;679591;29;1682;-73
2022/06/27 00:23:35;;;;;;;15.83;14.17;;;;;;;20.72;61.15;100856.28;677521;29;825;-73
2022/06/27 00:23:55;;;;;;;15.80;14.30;;;;;;;20.71;61.23;100855.38;679900;29;1137;-73
2022/06/27 00:24:16;;;;;;;16.33;14.77;;;;;;;20.77;61.22;100860.63;679447;29;1585;-73
2022/06/27 00:24:37;;;;;;;16.20;14.80;;;;;;;20.73;61.13;100861.56;682695;29;1180;-73
2022/06/27 00:24:58;;;;;;;16.33;14.70;;;;;;;20.76;61.32;100864.19;682415;28;1562;-72
2022/06/27 00:25:18;;;;;;;16.58;14.88;;;;;;;20.71;61.35;100860.69;682795;29;1430;-73
2022/06/27 00:25:40;;;;;;;16.67;14.98;;;;;;;20.72;61.15;100864.25;679607;29;1614;-73
2022/06/27 00:26:00;;;;;;;16.65;15.02;;;;;;;20.75;61.29;100862.44;676816;29;1325;-73
2022/06/27 00:26:21;;;;;;;16.88;15.27;;;;;;;20.69;61.25;100862.47;677152;29;1132;-73
2022/06/27 00:26:42;;;;;;;17.38;15.68;;;;;;;20.73;61.49;100871.28;679995;29;1413;-73
2022/06/27 00:27:03;;;;;;;17.23;15.53;;;;;;;20.69;61.19;100863.34;679766;29;1208;-73
2022/06/27 00:27:24;;;;;;;16.60;14.90;;;;;;;20.74;61.23;100879.25;682592;29;1225;-73
2022/06/27 00:27:44;;;;;;;15.90;14.40;;;;;;;20.69;61.20;100866.00;682497;29;1243;-73
2022/06/27 00:28:05;;;;;;;16.05;14.60;;;;;;;20.75;61.35;100873.03;682311;28;1442;-73
2022/06/27 00:28:26;;;;;;;16.70;15.10;;;;;;;20.68;61.18;100866.03;677248;29;1810;-73
2022/06/27 00:28:47;;;;;;;16.92;15.23;;;;;;;20.74;61.14;100881.88;682529;29;1923;-73
2022/06/27 00:29:08;;;;;;;17.00;15.35;;;;;;;20.69;61.31;100873.06;684815;28;1155;-73
2022/06/27 00:29:29;;;;;;;17.30;15.60;;;;;;;20.69;61.10;100873.97;682613;28;1081;-73
2022/06/27 00:29:50;;;;;;;17.90;16.20;;;;;;;20.69;61.23;100879.25;679823;29;975;-73
2022/06/27 00:30:11;;;;;;;17.90;16.20;;;;;;;20.68;61.23;100876.63;683085;28;1433;-73
2022/06/27 00:30:32;;;;;;;17.50;15.90;;;;;;;20.76;61.18;100881.84;686295;28;1573;-73
2022/06/27 00:30:53;;;;;;;17.00;15.45;;;;;;;20.72;61.12;100878.34;687982;28;1049;-72
2022/06/27 00:31:14;;;;;;;17.13;15.53;;;;;;;20.74;61.13;100881.88;684506;28;1492;-73
2022/06/27 00:31:35;;;;;;;16.92;15.32;;;;;;;20.73;61.25;100882.78;688039;28;856;-73
2022/06/27 00:31:56;;;;;;;16.63;15.02;;;;;;;20.71;61.20;100876.59;682608;28;1025;-73
2022/06/27 00:32:17;;;;;;;16.70;15.10;;;;;;;20.67;61.09;100869.56;683424;28;1105;-73
2022/06/27 00:32:38;;;;;;;16.90;15.30;;;;;;;20.65;61.01;100866.06;679896;29;1768;-73
2022/06/27 00:32:59;;;;;;;17.05;15.45;;;;;;;20.68;60.99;100879.28;677083;29;1704;-73
2022/06/27 00:33:20;;;;;;;16.90;15.20;;;;;;;20.68;60.85;100869.56;677434;29;1016;-74
2022/06/27 00:33:41;;;;;;;16.05;14.32;;;;;;;20.64;60.85;100867.81;677269;29;1300;-73
2022/06/27 00:34:02;;;;;;;16.03;14.33;;;;;;;20.67;60.86;100870.44;682500;29;1682;-73
2022/06/27 00:34:22;;;;;;;15.68;14.18;;;;;;;20.69;60.86;100878.38;680044;29;748;-73
2022/06/27 00:34:43;;;;;;;15.43;13.95;;;;;;;20.64;60.72;100873.13;675198;29;2178;-73
2022/06/27 00:35:05;;;;;;;15.20;13.70;;;;;;;20.66;60.92;100878.44;678888;29;1188;-73
2022/06/27 00:35:26;;;;;;;15.48;13.98;;;;;;;20.71;60.71;100878.41;678755;29;1981;-73
2022/06/27 00:35:49;;;;;;;15.85;14.35;;;;;;;20.76;60.60;100889.81;677075;29;1160;-73
2022/06/27 00:36:10;;;;;;;16.58;14.88;;;;;;;20.72;60.53;100893.41;681699;28;1337;-72
2022/06/27 00:36:30;;;;;;;16.80;15.00;;;;;;;20.68;60.62;100885.47;682539;29;1248;-73
2022/06/27 00:36:51;;;;;;;16.33;14.63;;;;;;;20.65;60.58;100874.03;684606;28;1114;-73
2022/06/27 00:37:13;;;;;;;15.18;13.77;;;;;;;20.69;60.44;100889.88;682225;29;1485;-72
2022/06/27 00:37:35;;;;;;;14.75;13.45;;;;;;;20.68;60.72;100879.28;682701;29;820;-73
2022/06/27 00:37:58;;;;;;;14.70;13.35;;;;;;;20.70;60.69;100885.47;680395;29;1210;-73
2022/06/27 00:38:19;;;;;;;14.85;13.45;;;;;;;20.68;60.64;100884.56;682514;29;1045;-73
2022/06/27 00:38:40;;;;;;;14.95;13.55;;;;;;;20.72;60.23;100893.41;682507;29;1137;-73
2022/06/27 00:39:01;;;;;;;15.20;13.80;;;;;;;20.69;60.62;100884.56;685025;28;1716;-73
2022/06/27 00:39:22;;;;;;;15.02;13.63;;;;;;;20.64;60.50;100874.88;682715;29;805;-73
2022/06/27 00:39:43;;;;;;;15.30;13.90;;;;;;;20.72;60.45;100898.72;678832;29;952;-73
2022/06/27 00:40:05;;;;;;;15.47;13.97;;;;;;;20.66;60.53;100883.72;683498;28;1824;-73
2022/06/27 00:40:26;;;;;;;15.30;13.90;;;;;;;20.76;60.44;100900.41;687946;28;796;-73
2022/06/27 00:40:47;;;;;;;15.35;13.95;;;;;;;20.67;60.40;100886.34;685371;28;970;-73
2022/06/27 00:41:08;;;;;;;15.10;13.60;;;;;;;20.65;60.24;100882.84;685012;28;1792;-73
2022/06/27 00:41:29;;;;;;;14.75;13.35;;;;;;;20.69;60.23;100889.88;685216;28;1874;-73
2022/06/27 00:41:49;;;;;;;14.60;13.10;;;;;;;20.64;60.28;100873.13;688005;28;994;-73
2022/06/27 00:42:10;;;;;;;14.80;13.20;;;;;;;20.71;60.11;100887.22;687240;28;1217;-73
2022/06/27 00:42:31;;;;;;;15.70;13.70;;;;;;;20.68;60.06;100884.56;682813;29;789;-73
2022/06/27 00:42:51;;;;;;;15.23;13.73;;;;;;;20.72;60.15;100893.41;679922;29;1219;-73
2022/06/27 00:43:12;;;;;;;14.52;13.23;;;;;;;20.69;60.00;100888.97;679729;29;1211;-73
2022/06/27 00:43:33;;;;;;;13.45;12.25;;;;;;;20.70;60.11;100882.81;682299;29;1221;-73
2022/06/27 00:43:54;;;;;;;13.30;12.05;;;;;;;20.74;60.04;100895.16;679676;29;1113;-73
2022/06/27 00:44:35;;;;;;;13.60;12.40;;;;;;;20.78;59.92;100902.16;680227;29;1590;-73
2022/06/27 00:44:55;;;;;;;14.30;13.00;;;;;;;20.66;60.07;100881.06;677213;29;1107;-73
2022/06/27 00:45:16;;;;;;;14.50;13.20;;;;;;;20.71;60.08;100886.34;679595;29;1411;-73
2022/06/27 00:45:37;;;;;;;14.50;13.20;;;;;;;20.68;59.81;100882.81;685809;28;1386;-73
2022/06/27 00:45:58;;;;;;;14.10;12.90;;;;;;;20.72;59.69;100888.97;679746;29;1789;-72
2022/06/27 00:46:19;;;;;;;14.40;13.00;;;;;;;20.69;59.63;100884.56;682333;29;1566;-73
2022/06/27 00:46:40;;;;;;;14.00;12.70;;;;;;;20.76;59.79;100890.69;680309;29;1273;-73
2022/06/27 00:47:01;;;;;;;13.68;12.38;;;;;;;20.74;59.66;100895.16;682989;28;1267;-72
2022/06/27 00:47:22;;;;;;;12.90;11.70;;;;;;;20.73;59.67;100890.75;677291;29;1936;-73
2022/06/27 00:47:43;;;;;;;13.48;12.20;;;;;;;20.69;59.70;100883.69;682478;29;1440;-73
2022/06/27 00:48:05;;;;;;;14.05;12.70;;;;;;;20.73;59.77;100884.56;679495;29;1565;-74
2022/06/27 00:48:27;;;;;;;14.65;13.15;;;;;;;20.74;59.85;100892.50;680835;29;754;-73
2022/06/27 00:48:48;;;;;;;14.95;13.50;;;;;;;20.71;59.87;100881.91;679318;29;1112;-73
2022/06/27 00:49:09;;;;;;;15.47;13.87;;;;;;;20.73;59.80;100888.09;678230;29;1740;-73
2022/06/27 00:49:30;;;;;;;15.20;13.60;;;;;;;20.79;59.87;100901.25;677722;29;1424;-72
2022/06/27 00:49:51;;;;;;;14.55;13.02;;;;;;;20.72;59.76;100886.31;680485;29;1801;-73
2022/06/27 00:50:12;;;;;;;13.55;12.25;;;;;;;20.75;59.70;100896.91;679372;29;1258;-73
2022/06/27 00:50:33;;;;;;;13.63;12.32;;;;;;;20.74;59.66;100897.81;676649;29;1113;-73
2022/06/27 00:50:56;;;;;;;13.00;11.80;;;;;;;20.76;59.83;100898.66;681823;28;1253;-73
2022/06/27 00:51:17;;;;;;;13.07;11.77;;;;;;;20.74;59.87;100896.91;684081;28;1694;-73
2022/06/27 00:51:38;;;;;;;13.57;12.27;;;;;;;20.76;59.86;100896.00;681544;29;1193;-73
2022/06/27 00:51:59;;;;;;;14.13;12.73;;;;;;;20.74;59.85;100891.59;682460;29;1156;-73
2022/06/27 00:52:20;;;;;;;14.50;13.10;;;;;;;20.75;59.90;100899.56;680185;28;1486;-73
2022/06/27 00:52:41;;;;;;;14.23;12.80;;;;;;;20.75;59.85;100902.19;685381;28;843;-73
2022/06/27 00:53:02;;;;;;;14.10;12.70;;;;;;;20.77;59.84;100905.69;683821;28;1347;-73
2022/06/27 00:53:23;;;;;;;14.23;12.83;;;;;;;20.75;60.01;100899.56;682470;29;1045;-73
2022/06/27 00:53:44;;;;;;;14.30;12.90;;;;;;;20.74;59.97;100896.91;682609;29;1113;-73
2022/06/27 00:54:05;;;;;;;14.27;12.88;;;;;;;20.76;60.24;100905.72;681616;29;1534;-73
2022/06/27 00:54:26;;;;;;;14.15;12.75;;;;;;;20.77;60.17;100911.00;685232;28;867;-73
2022/06/27 00:54:48;;;;;;;14.05;12.63;;;;;;;20.72;60.35;100899.56;684960;28;1154;-73
2022/06/27 00:55:10;;;;;;;14.52;12.65;;;;;;;20.74;60.18;100903.09;683127;28;1262;-73
2022/06/27 00:55:32;;;;;;;15.30;12.95;;;;;;;20.76;60.32;100911.91;680306;28;1974;-73
2022/06/27 00:55:53;;;;;;;14.52;12.80;;;;;;;20.72;60.27;100901.38;680039;29;867;-73
2022/06/27 00:56:14;;;;;;;14.30;12.95;;;;;;;20.81;60.32;100917.16;683017;28;1435;-73
2022/06/27 00:56:35;;;;;;;14.03;12.73;;;;;;;20.79;60.44;100916.31;681008;29;772;-73
2022/06/27 00:56:56;;;;;;;14.90;13.40;;;;;;;20.75;60.49;100902.19;680701;28;1041;-73
2022/06/27 00:57:18;;;;;;;14.60;13.10;;;;;;;20.74;60.57;100907.50;685675;28;2029;-73
2022/06/27 00:57:39;;;;;;;14.40;13.00;;;;;;;20.73;60.68;100898.69;685328;28;835;-73
2022/06/27 00:58:00;;;;;;;13.85;12.60;;;;;;;20.83;60.67;100915.34;682269;28;1915;-72
2022/06/27 00:58:21;;;;;;;13.48;12.27;;;;;;;20.76;60.56;100906.59;680236;29;988;-73
2022/06/27 00:58:42;;;;;;;13.55;12.25;;;;;;;20.74;60.65;100902.22;681876;29;895;-73
2022/06/27 00:59:03;;;;;;;13.70;12.40;;;;;;;20.74;60.80;100911.06;682017;29;1533;-73
2022/06/27 00:59:23;;;;;;;14.57;13.17;;;;;;;20.73;60.76;100905.75;684316;28;1261;-73
2022/06/27 00:59:44;;;;;;;14.10;12.80;;;;;;;20.75;60.71;100914.56;684130;28;1636;-73
2022/06/27 01:00:14;;;;;;;14.40;13.00;;;;;;;20.76;60.73;100911.91;681363;29;1786;-73
2022/06/27 01:00:35;;;;;;;14.57;13.25;;;;;;;20.73;60.69;100911.06;679944;29;981;-73
2022/06/27 01:00:56;;;;;;;14.82;13.45;;;;;;;20.73;60.51;100911.06;687764;28;1202;-73
2022/06/27 01:01:17;;;;;;;14.73;13.32;;;;;;;20.73;60.61;100905.75;682024;29;1629;-73
2022/06/27 01:01:38;;;;;;;14.98;13.48;;;;;;;20.72;60.56;100904.88;682531;29;1320;-73
2022/06/27 01:02:01;;;;;;;14.68;13.20;;;;;;;20.76;60.51;100911.91;681055;29;1460;-73
2022/06/27 01:02:22;;;;;;;14.45;13.05;;;;;;;20.76;60.42;100911.91;682511;29;1218;-73
2022/06/27 01:02:43;;;;;;;13.90;12.60;;;;;;;20.77;60.59;100915.44;682763;29;906;-73
2022/06/27 01:03:04;;;;;;;14.00;12.70;;;;;;;20.75;60.51;100915.47;679601;29;1488;-73
2022/06/27 01:03:35;;;;;;;14.18;12.77;;;;;;;20.70;60.50;100906.69;685183;28;820;-73
2022/06/27 01:04:00;;;;;;;14.57;13.07;;;;;;;20.73;60.58;100905.75;685093;28;1040;-73
2022/06/27 01:04:22;;;;;;;15.57;13.88;;;;;;;20.73;60.53;100906.66;690160;28;1859;-73
2022/06/27 01:04:43;;;;;;;15.80;14.20;;;;;;;20.71;60.56;100900.47;679417;29;1617;-73
2022/06/27 01:05:04;;;;;;;15.55;14.10;;;;;;;20.70;60.74;100901.38;680486;29;1137;-73
2022/06/27 01:05:25;;;;;;;15.77;14.18;;;;;;;20.71;60.65;100903.13;682523;29;1265;-73
2022/06/27 01:05:52;;;;;;;16.20;14.50;;;;;;;20.71;60.67;100902.25;682690;28;1329;-73
2022/06/27 01:06:13;;;;;;;16.08;14.43;;;;;;;20.74;60.75;100910.16;683210;28;1137;-73
2022/06/27 01:06:33;;;;;;;15.97;14.40;;;;;;;20.68;60.90;100895.19;680030;29;804;-73
2022/06/27 01:06:55;;;;;;;15.80;14.30;;;;;;;20.70;60.78;100898.72;677244;29;1139;-73
2022/06/27 01:07:16;;;;;;;15.00;13.60;;;;;;;20.69;60.90;100896.94;677121;29;1618;-73
2022/06/27 01:07:39;;;;;;;14.98;13.57;;;;;;;20.73;60.84;100901.34;682437;29;1304;-73
2022/06/27 01:08:00;;;;;;;15.32;13.82;;;;;;;20.74;60.70;100904.88;684145;28;1435;-73
2022/06/27 01:08:27;;;;;;;15.60;14.18;;;;;;;20.71;60.89;100902.25;682572;29;1033;-73
2022/06/27 01:08:48;;;;;;;15.60;14.10;;;;;;;20.75;61.06;100903.97;682532;29;1046;-73
2022/06/27 01:09:09;;;;;;;15.75;14.18;;;;;;;20.69;61.08;100894.28;680759;29;1143;-72
2022/06/27 01:09:29;;;;;;;15.80;14.30;;;;;;;20.72;61.20;100898.72;682004;29;1172;-73
2022/06/27 01:09:52;;;;;;;15.70;14.10;;;;;;;20.76;61.22;100906.59;682216;29;1641;-73
2022/06/27 01:10:15;;;;;;;15.50;13.90;;;;;;;20.73;61.08;100901.34;682232;29;1503;-73
2022/06/27 01:10:36;;;;;;;16.40;13.82;;;;;;;20.72;61.29;100902.22;682490;29;1485;-73
2022/06/27 01:10:57;;;;;;;15.73;14.13;;;;;;;20.74;61.28;100908.41;685117;28;1001;-73
2022/06/27 01:11:19;;;;;;;16.00;14.40;;;;;;;20.72;61.15;100901.38;682098;29;1938;-73
2022/06/27 01:11:40;;;;;;;16.20;14.60;;;;;;;20.75;61.20;100910.16;685144;28;1149;-74
2022/06/27 01:12:03;;;;;;;16.50;14.90;;;;;;;20.77;61.24;100912.81;684667;28;1202;-72
2022/06/27 01:12:24;;;;;;;17.10;15.40;;;;;;;20.72;61.25;100902.22;681256;29;1670;-72
2022/06/27 01:12:45;;;;;;;16.67;15.10;;;;;;;20.71;61.28;100902.25;679741;29;1225;-73
2022/06/27 01:13:06;;;;;;;16.60;15.00;;;;;;;20.76;61.39;100906.59;679416;29;1263;-73
2022/06/27 01:13:29;;;;;;;16.50;14.80;;;;;;;20.68;61.37;100898.72;682461;28;824;-73
2022/06/27 01:13:50;;;;;;;16.77;15.00;;;;;;;20.75;61.35;100912.81;680820;29;1033;-73
2022/06/27 01:14:12;;;;;;;16.52;14.82;;;;;;;20.69;61.58;100892.53;679363;29;1203;-73
2022/06/27 01:14:33;;;;;;;16.15;14.60;;;;;;;20.74;61.48;100911.06;685261;28;1518;-73
2022/06/27 01:14:55;;;;;;;15.67;14.17;;;;;;;20.75;61.51;100904.84;682496;29;966;-73
2022/06/27 01:15:15;;;;;;;15.40;13.90;;;;;;;20.77;61.51;100912.81;683951;28;1169;-73
2022/06/27 01:15:37;;;;;;;16.10;14.40;;;;;;;20.80;61.53;100923.34;684936;28;1973;-73
2022/06/27 01:15:58;;;;;;;16.63;14.82;;;;;;;20.73;61.57;100911.97;681710;28;1450;-73
2022/06/27 01:16:19;;;;;;;17.35;15.55;;;;;;;20.76;61.37;100909.25;682428;29;1377;-73
2022/06/27 01:16:40;;;;;;;17.13;15.32;;;;;;;20.71;61.60;100900.47;682511;29;1351;-74
2022/06/27 01:17:01;;;;;;;17.42;15.63;;;;;;;20.77;61.59;100907.50;684648;28;1776;-73
2022/06/27 01:17:23;;;;;;;18.48;15.77;;;;;;;20.74;61.68;100896.91;680002;29;965;-73
2022/06/27 01:17:45;;;;;;;18.98;15.50;;;;;;;20.82;61.84;100905.66;681083;28;1596;-75
2022/06/27 01:18:08;;;;;;;18.08;15.40;;;;;;;20.73;61.98;100896.03;682113;28;1450;-73
2022/06/27 01:18:28;;;;;;;16.45;14.75;;;;;;;20.75;61.81;100888.06;685109;28;1244;-73
2022/06/27 01:18:50;;;;;;;16.65;14.95;;;;;;;20.80;62.15;100900.38;679759;29;1352;-73
2022/06/27 01:19:14;;;;;;;16.27;14.68;;;;;;;20.84;62.18;100901.19;681189;29;1355;-73
2022/06/27 01:19:35;;;;;;;15.70;14.10;;;;;;;20.78;62.28;100893.34;681332;29;1141;-73
2022/06/27 01:19:56;;;;;;;15.73;14.10;;;;;;;20.84;62.40;100897.69;678474;29;1718;-73
2022/06/27 01:20:17;;;;;;;15.50;13.83;;;;;;;20.76;62.28;100888.03;682308;28;1243;-73
2022/06/27 01:20:41;;;;;;;16.50;14.45;;;;;;;20.78;62.40;100888.03;682594;29;1330;-73
2022/06/27 01:21:03;;;;;;;16.33;14.63;;;;;;;20.79;62.36;100893.28;682372;29;1376;-73
2022/06/27 01:21:25;;;;;;;16.83;15.15;;;;;;;20.78;62.61;100886.25;682554;29;992;-73
2022/06/27 01:21:53;;;;;;;16.27;14.65;;;;;;;20.80;62.62;100886.22;679972;29;1006;-73
2022/06/27 01:22:14;;;;;;;16.70;14.90;;;;;;;20.77;62.63;100880.97;679195;29;1156;-72
2022/06/27 01:22:35;;;;;;;17.10;15.30;;;;;;;20.81;62.81;100894.19;680218;29;934;-72
2022/06/27 01:22:58;;;;;;;16.67;15.07;;;;;;;20.76;63.09;100882.75;684512;28;1152;-72
2022/06/27 01:23:18;;;;;;;16.05;14.57;;;;;;;20.72;62.96;100878.34;682464;29;981;-73
2022/06/27 01:23:39;;;;;;;15.75;14.27;;;;;;;20.79;62.92;100885.34;682592;29;827;-73
2022/06/27 01:24:00;;;;;;;15.60;14.10;;;;;;;20.72;62.97;100872.19;683199;28;1220;-72
2022/06/27 01:24:23;;;;;;;15.32;13.82;;;;;;;20.73;63.00;100879.25;680115;29;1688;-72
2022/06/27 01:24:44;;;;;;;15.05;13.55;;;;;;;20.71;63.08;100865.13;679752;29;1026;-72
2022/06/27 01:25:06;;;;;;;14.90;13.40;;;;;;;20.69;63.12;100879.25;682647;28;1836;-72
2022/06/27 01:25:27;;;;;;;14.80;13.40;;;;;;;20.66;63.15;100876.63;682055;29;828;-72
2022/06/27 01:25:47;;;;;;;14.60;13.25;;;;;;;20.74;63.02;100891.59;679543;29;1235;-72
2022/06/27 01:26:09;;;;;;;14.50;13.10;;;;;;;20.72;63.15;100891.63;680944;29;1250;-72
2022/06/27 01:26:30;;;;;;;14.45;13.02;;;;;;;20.71;63.27;100889.88;681024;29;1566;-72
2022/06/27 01:26:52;;;;;;;15.20;13.70;;;;;;;20.72;63.25;100893.41;682533;29;950;-72
2022/06/27 01:27:13;;;;;;;15.57;14.07;;;;;;;20.65;63.32;100890.78;681987;29;1845;-72
2022/06/27 01:27:34;;;;;;;15.17;13.77;;;;;;;20.69;63.43;100888.97;679575;29;1790;-72
2022/06/27 01:27:56;;;;;;;15.32;13.90;;;;;;;20.69;63.63;100894.28;682144;29;1277;-72
2022/06/27 01:28:17;;;;;;;15.98;14.43;;;;;;;20.68;63.42;100895.19;682083;28;1634;-72
2022/06/27 01:28:39;;;;;;;16.27;14.68;;;;;;;20.69;63.43;100903.13;681089;29;1760;-72
2022/06/27 01:29:00;;;;;;;16.17;14.68;;;;;;;20.64;63.57;100894.34;682616;28;1112;-72
2022/06/27 01:29:21;;;;;;;16.20;14.70;;;;;;;20.65;63.89;100897.88;679731;29;1119;-72
2022/06/27 01:29:43;;;;;;;15.95;14.35;;;;;;;20.63;63.66;100894.34;681888;29;1008;-72
2022/06/27 01:30:05;;;;;;;15.30;13.80;;;;;;;20.62;63.80;100887.31;682630;28;1393;-72
2022/06/27 01:30:27;;;;;;;14.80;13.40;;;;;;;20.66;63.87;100895.19;685782;28;883;-72
2022/06/27 01:30:48;;;;;;;14.98;13.57;;;;;;;20.63;63.66;100884.63;684729;28;1469;-72
2022/06/27 01:31:13;;;;;;;15.02;13.63;;;;;;;20.68;63.66;100892.53;681241;28;1500;-72
2022/06/27 01:31:36;;;;;;;15.38;13.98;;;;;;;20.63;63.86;100883.75;677223;29;931;-72
2022/06/27 01:31:58;;;;;;;15.40;13.90;;;;;;;20.60;63.76;100873.19;674035;29;1485;-72
2022/06/27 01:32:23;;;;;;;15.35;13.85;;;;;;;20.58;63.86;100872.34;679849;29;1697;-72
2022/06/27 01:32:44;;;;;;;15.73;14.23;;;;;;;20.61;63.85;100875.84;679717;29;1097;-75
2022/06/27 01:33:05;;;;;;;16.00;14.50;;;;;;;20.55;63.80;100860.84;680321;29;1240;-73
2022/06/27 01:33:29;;;;;;;16.08;14.48;;;;;;;20.62;63.99;100876.69;682526;29;880;-72
2022/06/27 01:33:50;;;;;;;16.02;14.50;;;;;;;20.59;64.06;100868.78;681983;29;1518;-72
2022/06/27 01:34:13;;;;;;;16.13;14.43;;;;;;;20.63;64.12;100879.34;685157;28;1329;-72
2022/06/27 01:34:37;;;;;;;16.02;14.32;;;;;;;20.61;64.20;100875.84;690475;28;1150;-73
2022/06/27 01:34:58;;;;;;;16.30;14.43;;;;;;;20.62;64.20;100876.69;687574;28;1033;-73
2022/06/27 01:35:19;;;;;;;16.70;14.93;;;;;;;20.64;64.18;100882.84;687364;28;1036;-72
2022/06/27 01:35:40;;;;;;;17.48;15.30;;;;;;;20.60;64.31;100871.41;684868;28;1904;-73
2022/06/27 01:36:48;;;;;;;15.93;14.32;;;;;;;20.61;64.50;100886.44;674237;29;1232;-73
2022/06/27 01:37:10;;;;;;;16.95;15.25;;;;;;;20.60;64.32;100875.84;676741;29;1522;-73
2022/06/27 01:37:35;;;;;;;16.73;14.93;;;;;;;20.60;64.45;100881.16;675659;29;1697;-73
2022/06/27 01:37:56;;;;;;;15.88;14.18;;;;;;;20.61;64.50;100893.50;679795;29;1174;-72
2022/06/27 01:38:17;;;;;;;15.60;14.10;;;;;;;20.57;64.38;100875.91;684935;28;1081;-74
2022/06/27 01:38:39;;;;;;;15.40;14.00;;;;;;;20.59;64.56;100882.03;685117;28;796;-72
2022/06/27 01:39:00;;;;;;;15.63;14.23;;;;;;;20.59;64.51;100890.00;682278;29;1053;-72
2022/06/27 01:39:26;;;;;;;15.38;13.98;;;;;;;20.61;64.39;100896.16;679852;29;1141;-72
2022/06/27 01:39:51;;;;;;;16.50;14.90;;;;;;;20.64;64.47;100896.09;684533;28;1078;-72
2022/06/27 01:40:14;;;;;;;17.63;15.75;;;;;;;20.61;64.29;100888.19;685970;28;1203;-72
2022/06/27 01:40:35;;;;;;;18.05;16.15;;;;;;;20.66;64.37;100899.63;685067;28;1274;-72
2022/06/27 01:40:56;;;;;;;18.23;16.23;;;;;;;20.60;64.49;100881.16;685171;28;956;-73